createdAt,value
2022-09-07T00:00:56.656Z,96.73
2022-09-07T00:03:41.812Z,96.57
2022-09-07T00:06:27.277Z,96.51
2022-09-07T00:09:12.704Z,96.07
2022-09-07T00:11:58.616Z,95.87
2022-09-07T00:14:43.799Z,95.49
2022-09-07T00:17:29.676Z,95.10
2022-09-07T00:20:15.073Z,95.07
2022-09-07T00:23:00.719Z,95.71
2022-09-07T00:25:46.383Z,96.19
2022-09-07T00:28:31.889Z,96.03
2022-09-07T00:31:19.659Z,95.30
2022-09-07T00:34:04.783Z,95.70
2022-09-07T00:36:50.913Z,95.87
2022-09-07T00:39:37.460Z,95.08
2022-09-07T00:42:23.282Z,95.83
2022-09-07T00:45:11.633Z,95.82
2022-09-07T00:48:03.181Z,95.95
2022-09-07T00:50:53.767Z,95.03
2022-09-07T00:53:45.360Z,95.24
2022-09-07T00:56:33.514Z,94.43
2022-09-07T00:59:21.048Z,94.97
2022-09-07T01:02:06.336Z,95.39
2022-09-07T01:04:56.056Z,95.02
2022-09-07T01:07:41.678Z,95.93
2022-09-07T01:10:31.659Z,95.51
2022-09-07T01:13:17.212Z,96.11
2022-09-07T01:16:08.505Z,95.23
2022-09-07T01:19:12.204Z,95.76
2022-09-07T01:22:11.288Z,95.76
2022-09-07T01:25:09.132Z,95.47
2022-09-07T01:28:03.267Z,95.15
2022-09-07T01:30:56.075Z,94.38
2022-09-07T01:34:00.025Z,94.73
2022-09-07T01:36:51.490Z,95.35
2022-09-07T01:39:44.455Z,95.48
2022-09-07T01:42:33.347Z,95.35
2022-09-07T01:45:22.548Z,95.01
2022-09-07T01:48:10.327Z,95.34
2022-09-07T01:50:59.473Z,95.48
2022-09-07T01:53:53.134Z,95.22
2022-09-07T01:56:41.353Z,94.41
2022-09-07T01:59:32.511Z,94.25
2022-09-07T02:02:31.025Z,94.29
2022-09-07T02:05:25.959Z,93.80
2022-09-07T02:08:15.148Z,92.90
2022-09-07T02:11:04.421Z,93.21
2022-09-07T02:13:56.603Z,93.36
2022-09-07T02:16:46.988Z,93.79
2022-09-07T02:19:34.861Z,92.64
2022-09-07T02:22:24.357Z,92.39
2022-09-07T02:25:10.533Z,92.16
2022-09-07T02:28:04.548Z,92.27
2022-09-07T02:30:50.206Z,92.74
2022-09-07T02:33:35.528Z,92.75
2022-09-07T02:36:24.375Z,93.19
2022-09-07T02:39:09.677Z,93.04
2022-09-07T02:41:55.432Z,92.60
2022-09-07T02:44:42.205Z,91.76
2022-09-07T02:47:32.550Z,91.60
2022-09-07T02:50:36.773Z,91.71
2022-09-07T02:53:41.300Z,92.01
2022-09-07T02:56:39.200Z,91.56
2022-09-07T02:59:46.046Z,91.86
2022-09-07T03:02:37.680Z,90.64
2022-09-07T03:05:38.216Z,89.92
2022-09-07T03:08:26.100Z,89.60
2022-09-07T03:11:12.343Z,89.93
2022-09-07T03:14:16.099Z,90.41
2022-09-07T03:17:02.054Z,89.64
2022-09-07T03:19:47.991Z,89.39
2022-09-07T03:22:35.388Z,89.38
2022-09-07T03:25:20.974Z,89.08
2022-09-07T03:28:06.503Z,88.97
2022-09-07T03:30:51.894Z,89.48
2022-09-07T03:33:37.130Z,89.42
2022-09-07T03:36:23.156Z,89.44
2022-09-07T03:39:11.155Z,89.28
2022-09-07T03:41:57.349Z,88.75
2022-09-07T03:44:43.305Z,88.93
2022-09-07T03:47:29.168Z,88.46
2022-09-07T03:52:48.812Z,88.61
2022-09-07T03:55:34.055Z,88.80
2022-09-07T03:58:19.470Z,87.94
2022-09-07T04:01:06.325Z,87.18
2022-09-07T04:03:51.971Z,87.21
2022-09-07T04:06:37.129Z,87.33
2022-09-07T04:09:22.595Z,87.50
2022-09-07T04:12:08.274Z,86.97
2022-09-07T04:14:53.513Z,86.34
2022-09-07T04:17:39.626Z,87.29
2022-09-07T04:20:25.493Z,87.07
2022-09-07T04:23:11.095Z,86.66
2022-09-07T04:25:56.286Z,87.06
2022-09-07T04:28:41.353Z,86.74
2022-09-07T04:31:27.116Z,87.08
2022-09-07T04:34:12.497Z,86.08
2022-09-07T04:36:57.951Z,86.01
2022-09-07T04:39:43.162Z,85.99
2022-09-07T04:42:29.887Z,85.57
2022-09-07T04:45:15.076Z,85.57
2022-09-07T04:48:00.649Z,85.33
2022-09-07T04:50:45.891Z,84.97
2022-09-07T04:53:31.414Z,84.45
2022-09-07T04:56:17.644Z,84.29
2022-09-07T04:59:03.565Z,84.59
2022-09-07T05:01:48.734Z,84.75
2022-09-07T05:04:36.674Z,83.92
2022-09-07T05:07:21.804Z,83.91
2022-09-07T05:10:07.581Z,83.47
2022-09-07T05:12:52.622Z,87.31
2022-09-07T05:15:37.957Z,87.35
2022-09-07T05:18:23.528Z,85.93
2022-09-07T05:21:16.124Z,85.76
2022-09-07T05:24:01.992Z,85.59
2022-09-07T05:26:47.200Z,86.26
2022-09-07T05:32:38.152Z,85.83
2022-09-07T05:35:23.494Z,86.85
2022-09-07T05:38:08.783Z,86.95
2022-09-07T05:40:54.444Z,86.79
2022-09-07T05:46:45.744Z,86.98
2022-09-07T05:49:32.208Z,87.36
2022-09-07T05:52:17.584Z,87.37
2022-09-07T05:55:26.168Z,87.83
2022-09-07T05:58:09.355Z,89.04
2022-09-07T06:00:58.337Z,88.80
2022-09-07T06:03:44.410Z,88.86
2022-09-07T06:06:29.692Z,89.16
2022-09-07T06:09:15.106Z,89.38
2022-09-07T06:12:00.559Z,89.82
2022-09-07T06:14:45.591Z,90.67
2022-09-07T06:17:31.196Z,90.04
2022-09-07T06:20:16.418Z,90.75
2022-09-07T06:23:01.764Z,90.34
2022-09-07T06:25:50.078Z,89.87
2022-09-07T06:28:39.520Z,89.57
2022-09-07T06:31:24.989Z,88.95
2022-09-07T06:34:10.367Z,88.51
2022-09-07T06:36:56.425Z,89.03
2022-09-07T06:39:42.218Z,89.13
2022-09-07T06:42:27.360Z,89.69
2022-09-07T06:45:12.897Z,89.12
2022-09-07T06:47:58.314Z,89.42
2022-09-07T06:50:43.665Z,89.78
2022-09-07T06:56:23.752Z,91.36
2022-09-07T06:59:09.176Z,92.20
2022-09-07T07:01:54.478Z,91.62
2022-09-07T07:04:41.324Z,91.61
2022-09-07T07:07:26.886Z,92.54
2022-09-07T07:10:12.239Z,93.13
2022-09-07T07:12:58.590Z,94.16
2022-09-07T07:15:44.373Z,99.02
2022-09-07T07:18:29.777Z,100.00
2022-09-07T07:21:15.523Z,100.00
2022-09-07T07:24:03.880Z,100.00
2022-09-07T07:26:51.347Z,100.00
2022-09-07T07:29:36.828Z,100.00
2022-09-07T07:32:22.213Z,100.00
2022-09-07T07:35:08.749Z,100.00
2022-09-07T07:44:04.660Z,100.00
2022-09-07T07:46:50.579Z,100.00
2022-09-07T07:49:36.076Z,100.00
2022-09-07T07:58:32.659Z,100.00
2022-09-07T08:01:18.131Z,100.00
2022-09-07T08:04:03.391Z,100.00
2022-09-07T08:06:48.595Z,100.00
2022-09-07T08:09:33.790Z,100.00
2022-09-07T08:12:20.052Z,100.00
2022-09-07T08:15:05.247Z,100.00
2022-09-07T08:17:50.392Z,100.00
2022-09-07T08:20:35.595Z,100.00
2022-09-07T08:23:20.907Z,100.00
2022-09-07T08:26:06.615Z,100.00
2022-09-07T08:28:51.713Z,100.00
2022-09-07T08:31:38.114Z,100.00
2022-09-07T08:34:23.364Z,100.00
2022-09-07T08:37:08.740Z,100.00
2022-09-07T08:39:54.196Z,100.00
2022-09-07T08:42:53.037Z,100.00
2022-09-07T08:45:44.388Z,100.00
2022-09-07T08:48:32.110Z,100.00
2022-09-07T08:51:24.104Z,100.00
2022-09-07T08:54:13.752Z,100.00
2022-09-07T09:00:12.005Z,100.00
2022-09-07T09:06:23.930Z,99.64
2022-09-07T09:09:32.090Z,97.45
2022-09-07T09:12:37.879Z,95.51
2022-09-07T09:15:30.780Z,96.18
2022-09-07T09:18:27.373Z,95.71
2022-09-07T09:21:14.952Z,94.52
2022-09-07T09:24:02.267Z,96.60
2022-09-07T09:29:40.448Z,92.45
2022-09-07T09:32:33.409Z,90.46
2022-09-07T09:35:31.742Z,86.85
2022-09-07T09:38:29.013Z,82.87
2022-09-07T09:41:15.515Z,72.44
2022-09-07T09:44:01.009Z,68.26
2022-09-07T09:47:29.188Z,63.92
2022-09-07T09:49:53.773Z,63.67
2022-09-07T09:52:49.220Z,55.98
2022-09-07T09:55:37.468Z,54.45
2022-09-07T10:03:10.515Z,57.16
2022-09-07T10:04:41.774Z,57.13
2022-09-07T10:07:28.409Z,53.32
2022-09-07T10:10:16.365Z,53.61
2022-09-07T10:13:01.519Z,56.06
2022-09-07T10:15:50.164Z,63.92
2022-09-07T10:18:41.347Z,65.83
2022-09-07T10:21:30.467Z,62.21
2022-09-07T10:24:15.950Z,61.46
2022-09-07T10:27:01.256Z,59.47
2022-09-07T10:29:46.290Z,52.30
2022-09-07T10:32:44.085Z,55.34
2022-09-07T10:36:05.040Z,54.79
2022-09-07T10:38:54.767Z,55.78
2022-09-07T10:41:47.811Z,62.63
2022-09-07T10:44:43.573Z,65.73
2022-09-07T10:47:38.263Z,67.16
2022-09-07T10:50:36.235Z,63.21
2022-09-07T10:53:42.057Z,66.50
2022-09-07T10:56:31.587Z,60.51
2022-09-07T10:59:17.003Z,56.04
2022-09-07T11:02:08.387Z,52.38
2022-09-07T11:05:01.214Z,45.89
2022-09-07T11:08:05.055Z,43.43
2022-09-07T11:11:08.692Z,42.06
2022-09-07T11:14:12.061Z,42.21
2022-09-07T11:17:01.666Z,42.17
2022-09-07T11:19:52.259Z,43.18
2022-09-07T11:22:42.179Z,47.32
2022-09-07T11:25:41.915Z,45.39
2022-09-07T11:28:46.148Z,42.92
2022-09-07T11:31:37.729Z,42.24
2022-09-07T11:34:31.870Z,45.14
2022-09-07T11:37:20.320Z,46.82
2022-09-07T11:40:24.657Z,49.60
2022-09-07T11:43:16.260Z,51.48
2022-09-07T11:46:04.887Z,51.41
2022-09-07T11:48:53.150Z,47.60
2022-09-07T11:51:41.594Z,45.29
2022-09-07T11:54:34.313Z,42.19
2022-09-07T11:57:27.572Z,41.19
2022-09-07T12:00:18.843Z,44.62
2022-09-07T12:03:23.835Z,45.03
2022-09-07T12:06:09.048Z,46.22
2022-09-07T12:08:54.328Z,47.95
2022-09-07T12:11:42.257Z,47.48
2022-09-07T12:14:46.110Z,45.77
2022-09-07T12:17:40.160Z,45.44
2022-09-07T12:20:27.711Z,44.41
2022-09-07T12:23:15.438Z,45.71
2022-09-07T12:26:19.751Z,46.50
2022-09-07T12:29:17.562Z,47.83
2022-09-07T12:35:27.262Z,52.04
2022-09-07T12:38:18.201Z,52.14
2022-09-07T12:41:23.389Z,53.36
2022-09-07T12:44:14.813Z,55.33
2022-09-07T12:47:23.379Z,54.35
2022-09-07T12:50:39.258Z,55.01
2022-09-07T12:53:28.909Z,54.38
2022-09-07T12:56:23.045Z,52.12
2022-09-07T12:59:25.976Z,49.94
2022-09-07T13:02:30.203Z,48.61
2022-09-07T13:05:20.099Z,48.53
2022-09-07T13:08:24.371Z,49.42
2022-09-07T13:11:21.538Z,51.97
2022-09-07T13:14:27.093Z,54.62
2022-09-07T13:17:31.263Z,55.85
2022-09-07T13:20:21.358Z,55.38
2022-09-07T13:23:08.592Z,53.57
2022-09-07T13:25:55.961Z,53.44
2022-09-07T13:28:58.132Z,50.60
2022-09-07T13:31:43.324Z,49.77
2022-09-07T13:34:34.333Z,44.18
2022-09-07T13:37:21.814Z,42.03
2022-09-07T13:40:09.938Z,40.41
2022-09-07T13:42:56.309Z,42.98
2022-09-07T13:45:45.483Z,44.94
2022-09-07T13:48:40.817Z,45.22
2022-09-07T13:51:29.171Z,42.08
2022-09-07T13:54:21.805Z,42.35
2022-09-07T13:57:18.567Z,43.29
2022-09-07T14:00:04.134Z,42.74
2022-09-07T14:02:56.500Z,41.18
2022-09-07T14:05:43.433Z,41.00
2022-09-07T14:08:29.563Z,43.33
2022-09-07T14:11:18.330Z,41.80
2022-09-07T14:14:16.895Z,43.19
2022-09-07T14:17:07.565Z,43.66
2022-09-07T14:19:58.940Z,41.20
2022-09-07T14:22:44.646Z,43.39
2022-09-07T14:25:30.095Z,45.44
2022-09-07T14:28:31.961Z,43.62
2022-09-07T14:31:19.603Z,42.89
2022-09-07T14:34:06.597Z,42.90
2022-09-07T14:36:52.631Z,50.01
2022-09-07T14:39:42.030Z,52.06
2022-09-07T14:42:27.536Z,54.80
2022-09-07T14:45:32.705Z,55.85
2022-09-07T14:48:26.450Z,55.43
2022-09-07T14:51:32.716Z,56.50
2022-09-07T14:54:28.708Z,56.29
2022-09-07T14:57:16.863Z,56.37
2022-09-07T15:00:19.194Z,52.59
2022-09-07T15:03:22.894Z,48.47
2022-09-07T15:06:09.799Z,46.21
2022-09-07T15:08:55.236Z,44.96
2022-09-07T15:11:40.384Z,45.34
2022-09-07T15:14:25.872Z,45.34
2022-09-07T15:20:40.285Z,48.71
2022-09-07T15:23:25.596Z,50.05
2022-09-07T15:27:01.967Z,49.93
2022-09-07T15:29:19.249Z,50.30
2022-09-07T15:32:08.861Z,51.76
2022-09-07T15:34:54.065Z,52.03
2022-09-07T15:41:18.148Z,52.26
2022-09-07T15:43:52.729Z,56.91
2022-09-07T15:46:38.537Z,54.82
2022-09-07T15:49:24.925Z,56.61
2022-09-07T15:52:11.971Z,60.84
2022-09-07T15:54:57.288Z,60.83
2022-09-07T15:57:54.519Z,61.04
2022-09-07T16:00:42.550Z,61.00
2022-09-07T16:03:28.254Z,61.51
2022-09-07T16:06:14.072Z,63.36
2022-09-07T16:08:59.435Z,66.15
2022-09-07T16:11:44.662Z,67.58
2022-09-07T16:14:30.720Z,67.32
2022-09-07T16:20:21.256Z,68.09
2022-09-07T16:23:15.207Z,71.39
2022-09-07T16:26:02.286Z,69.50
2022-09-07T16:28:48.672Z,70.01
2022-09-07T16:31:34.391Z,69.95
2022-09-07T16:34:21.233Z,70.06
2022-09-07T16:37:06.839Z,71.21
2022-09-07T16:39:52.684Z,72.17
2022-09-07T16:42:38.052Z,72.66
2022-09-07T16:48:29.666Z,75.25
2022-09-07T16:51:16.472Z,75.59
2022-09-07T16:54:01.921Z,76.47
2022-09-07T16:56:47.383Z,77.19
2022-09-07T16:59:32.736Z,78.74
2022-09-07T17:02:18.189Z,79.31
2022-09-07T17:05:03.689Z,79.45
2022-09-07T17:07:48.895Z,79.32
2022-09-07T17:10:33.929Z,79.62
2022-09-07T17:13:19.913Z,81.01
2022-09-07T17:16:08.300Z,81.98
2022-09-07T17:22:00.161Z,81.28
2022-09-07T17:24:45.222Z,82.00
2022-09-07T17:27:30.685Z,82.72
2022-09-07T17:30:16.283Z,83.40
2022-09-07T17:33:01.585Z,84.54
2022-09-07T17:35:46.769Z,85.68
2022-09-07T17:41:37.138Z,85.93
2022-09-07T17:44:23.259Z,86.70
2022-09-07T17:47:08.437Z,88.00
2022-09-07T17:49:53.807Z,88.08
2022-09-07T17:52:41.083Z,88.52
2022-09-07T17:55:31.600Z,88.95
2022-09-07T17:58:16.849Z,89.84
2022-09-07T18:01:03.421Z,90.29
2022-09-07T18:03:48.536Z,90.85
2022-09-07T18:06:34.042Z,92.16
2022-09-07T18:09:19.733Z,93.42
2022-09-07T18:12:05.441Z,93.84
2022-09-07T18:14:50.868Z,94.82
2022-09-07T18:17:35.953Z,96.20
2022-09-07T18:20:22.704Z,97.53
2022-09-07T18:23:08.108Z,97.96
2022-09-07T18:25:57.570Z,98.35
2022-09-07T18:31:48.130Z,98.43
2022-09-07T18:34:33.348Z,98.32
2022-09-07T18:37:19.527Z,98.65
2022-09-07T18:40:05.067Z,99.26
2022-09-07T18:42:50.768Z,99.31
2022-09-07T18:45:37.544Z,100.00
2022-09-07T18:48:23.023Z,100.00
2022-09-07T18:51:09.810Z,100.00
2022-09-07T18:53:55.653Z,100.00
2022-09-07T18:56:41.105Z,100.00
2022-09-07T18:59:26.539Z,100.00
2022-09-07T19:02:12.017Z,100.00
2022-09-07T19:08:03.764Z,100.00
2022-09-07T19:10:49.010Z,100.00
2022-09-07T19:13:35.098Z,100.00
2022-09-07T19:16:20.522Z,100.00
2022-09-07T19:19:06.887Z,100.00
2022-09-07T19:21:52.340Z,100.00
2022-09-07T19:24:37.827Z,100.00
2022-09-07T19:27:23.226Z,100.00
2022-09-07T19:30:08.897Z,100.00
2022-09-07T19:32:54.182Z,100.00
2022-09-07T19:35:39.411Z,100.00
2022-09-07T19:38:24.812Z,100.00
2022-09-07T19:41:12.834Z,100.00
2022-09-07T19:43:58.435Z,100.00
2022-09-07T19:46:45.198Z,100.00
2022-09-07T19:49:30.523Z,100.00
2022-09-07T19:52:16.264Z,100.00
2022-09-07T19:55:03.319Z,100.00
2022-09-07T19:57:50.609Z,100.00
2022-09-07T20:00:41.726Z,100.00
2022-09-07T20:03:27.502Z,100.00
2022-09-07T20:06:14.541Z,100.00
2022-09-07T20:09:01.247Z,100.00
2022-09-07T20:11:47.879Z,100.00
2022-09-07T20:14:33.495Z,100.00
2022-09-07T20:17:19.013Z,100.00
2022-09-07T20:20:05.153Z,100.00
2022-09-07T20:22:50.385Z,100.00
2022-09-07T20:25:35.460Z,100.00
2022-09-07T20:28:20.999Z,100.00
2022-09-07T20:31:08.313Z,100.00
2022-09-07T20:33:53.628Z,100.00
2022-09-07T20:36:38.769Z,100.00
2022-09-07T20:39:24.286Z,100.00
2022-09-07T20:42:09.638Z,100.00
2022-09-07T20:44:55.109Z,100.00
2022-09-07T20:47:40.392Z,100.00
2022-09-07T20:50:25.831Z,100.00
2022-09-07T20:53:11.278Z,100.00
2022-09-07T20:56:00.629Z,100.00
2022-09-07T20:58:46.876Z,100.00
2022-09-07T21:01:32.582Z,100.00
2022-09-07T21:04:18.099Z,100.00
2022-09-07T21:07:03.286Z,100.00
2022-09-07T21:09:49.174Z,100.00
2022-09-07T21:12:34.608Z,100.00
2022-09-07T21:15:19.951Z,100.00
2022-09-07T21:18:05.865Z,100.00
2022-09-07T21:21:18.466Z,100.00
2022-09-07T21:24:03.316Z,100.00
2022-09-07T21:26:49.038Z,100.00
2022-09-07T21:29:34.103Z,100.00
2022-09-07T21:32:19.561Z,100.00
2022-09-07T21:35:05.021Z,100.00
2022-09-07T21:37:50.397Z,100.00
2022-09-07T21:40:39.768Z,100.00
2022-09-07T21:43:25.261Z,100.00
2022-09-07T21:46:12.076Z,100.00
2022-09-07T21:48:57.931Z,100.00
2022-09-07T21:51:43.193Z,100.00
2022-09-07T21:54:28.655Z,100.00
2022-09-07T21:57:14.129Z,100.00
2022-09-07T21:59:59.458Z,100.00
2022-09-07T22:02:44.833Z,100.00
2022-09-07T22:05:30.178Z,100.00
2022-09-07T22:08:15.737Z,100.00
2022-09-07T22:11:05.956Z,100.00
2022-09-07T22:13:55.476Z,100.00
2022-09-07T22:16:40.837Z,100.00
2022-09-07T22:19:26.454Z,100.00
2022-09-07T22:22:12.042Z,100.00
2022-09-07T22:24:57.117Z,100.00
2022-09-07T22:27:42.581Z,100.00
2022-09-07T22:30:27.822Z,100.00
2022-09-07T22:33:13.171Z,100.00
2022-09-07T22:36:11.157Z,100.00
2022-09-07T22:38:57.761Z,100.00
2022-09-07T22:41:43.497Z,100.00
2022-09-07T22:44:29.980Z,100.00
2022-09-07T22:47:15.661Z,100.00
2022-09-07T22:50:01.058Z,100.00
2022-09-07T22:52:46.650Z,100.00
2022-09-07T22:55:31.821Z,100.00
2022-09-07T22:58:17.350Z,100.00
2022-09-07T23:01:03.562Z,100.00
2022-09-07T23:03:49.247Z,100.00
2022-09-07T23:06:36.515Z,100.00
2022-09-07T23:09:21.989Z,100.00
2022-09-07T23:12:07.503Z,100.00
2022-09-07T23:14:52.939Z,100.00
2022-09-07T23:17:37.942Z,100.00
2022-09-07T23:20:25.357Z,100.00
2022-09-07T23:23:10.896Z,100.00
2022-09-07T23:25:56.080Z,100.00
2022-09-07T23:28:41.241Z,100.00
2022-09-07T23:31:27.332Z,100.00
2022-09-07T23:34:12.677Z,100.00
2022-09-07T23:36:57.984Z,100.00
2022-09-07T23:39:44.311Z,100.00
2022-09-07T23:42:29.533Z,100.00
2022-09-07T23:45:15.189Z,100.00
2022-09-07T23:48:00.423Z,100.00
2022-09-07T23:50:45.990Z,100.00
2022-09-07T23:53:31.262Z,100.00
2022-09-07T23:56:16.513Z,100.00
2022-09-07T23:59:01.735Z,100.00
